Time;durP1;ratioP1;P1;durP2;ratioP2;P2;SDS_P1;SDS_P2;PMS_P1;PMS_P2;Temp;Humidity;BMP_temperature;BMP_pressure;BME280_temperature;BME280_humidity;BME280_pressure;Samples;Min_cycle;Max_cycle;Signal;HPM_P1;HPM_P2
2023/12/01 00:00:49;;;;;;;17.53;12.80;;;5.20;99.90;;;5.03;71.82;94635.47;4980653;28;20494;-59
2023/12/01 00:03:16;;;;;;;22.90;13.50;;;5.20;99.90;;;4.99;72.11;94588.88;4981982;28;20452;-57
2023/12/01 00:05:43;;;;;;;21.23;12.60;;;5.20;99.90;;;4.98;72.07;94608.06;4980826;28;20909;-58
2023/12/01 00:08:10;;;;;;;18.03;10.53;;;5.20;99.90;;;4.98;71.83;94608.88;4982108;28;20891;-59
2023/12/01 00:10:39;;;;;;;16.40;11.77;;;5.20;99.90;;;4.98;72.37;94598.47;4980321;28;20471;-59
2023/12/01 00:13:06;;;;;;;21.13;11.30;;;5.20;99.90;;;4.99;72.01;94600.13;4982583;28;20830;-56
2023/12/01 00:15:33;;;;;;;19.33;11.53;;;5.20;99.90;;;5.01;71.78;94615.66;4979879;28;20852;-60
2023/12/01 00:18:01;;;;;;;23.23;11.80;;;5.20;99.90;;;5.01;72.33;94589.59;4982714;28;20516;-59
2023/12/01 00:20:28;;;;;;;15.93;11.30;;;5.20;99.90;;;5.03;72.45;94618.97;4979281;28;20499;-58
2023/12/01 00:22:55;;;;;;;18.77;12.00;;;5.20;99.90;;;5.03;72.17;94606.78;4982655;28;20509;-58
2023/12/01 00:25:22;;;;;;;18.80;12.67;;;5.20;99.90;;;5.02;71.89;94588.66;4979225;28;20471;-58
2023/12/01 00:27:51;;;;;;;17.90;12.20;;;5.20;99.90;;;4.99;72.18;94584.50;4979220;28;20448;-60
2023/12/01 00:30:18;;;;;;;21.10;13.40;;;5.20;99.90;;;4.97;72.05;94596.81;4979441;28;20475;-57
2023/12/01 00:32:46;;;;;;;19.73;12.80;;;5.20;99.90;;;4.95;72.17;94593.47;4982305;28;20447;-59
2023/12/01 00:35:13;;;;;;;23.30;13.90;;;5.20;99.90;;;4.95;72.19;94596.09;4978956;28;20482;-59
2023/12/01 00:37:40;;;;;;;22.60;13.27;;;5.10;99.90;;;4.93;72.39;94578.91;4981749;28;20867;-57
2023/12/01 00:40:10;;;;;;;20.67;13.43;;;5.10;99.90;;;4.89;72.51;94598.31;4979707;28;20495;-59
2023/12/01 00:42:37;;;;;;;19.57;12.40;;;5.10;99.90;;;4.90;72.22;94576.53;4981467;28;20455;-56
2023/12/01 00:45:06;;;;;;;20.67;12.90;;;5.10;99.90;;;4.88;72.20;94607.91;4979639;28;20467;-58
2023/12/01 00:47:34;;;;;;;20.50;12.53;;;5.10;99.90;;;4.87;72.10;94598.44;4981036;28;20451;-58
2023/12/01 00:50:01;;;;;;;24.13;13.57;;;5.00;99.90;;;4.84;71.72;94616.88;4980506;28;20478;-58
2023/12/01 00:52:28;;;;;;;21.83;13.27;;;5.00;99.90;;;4.79;72.13;94598.97;4980846;28;20459;-58
2023/12/01 00:54:55;;;;;;;25.27;12.97;;;5.00;99.90;;;4.77;71.98;94618.25;4980683;28;20471;-57
2023/12/01 00:57:23;;;;;;;19.50;13.13;;;4.90;99.90;;;4.73;72.20;94593.41;4980509;28;20477;-56
2023/12/01 00:59:51;;;;;;;20.73;12.73;;;4.90;99.90;;;4.71;72.62;94595.25;4980651;28;20852;-57
2023/12/01 01:02:20;;;;;;;20.57;13.03;;;4.90;99.90;;;4.69;72.67;94586.75;4979942;28;20459;-59
2023/12/01 01:04:47;;;;;;;21.43;11.17;;;4.90;99.90;;;4.66;72.47;94573.00;4980807;28;20479;-57
2023/12/01 01:07:14;;;;;;;20.30;12.60;;;4.90;99.90;;;4.64;72.70;94574.03;4979402;28;20455;-58
2023/12/01 01:09:41;;;;;;;17.60;11.47;;;4.90;99.90;;;4.63;73.33;94575.81;4981006;28;20537;-58
2023/12/01 01:12:09;;;;;;;21.30;12.63;;;4.90;99.90;;;4.67;73.38;94572.03;4979591;28;20448;-58
2023/12/01 01:14:36;;;;;;;24.00;13.33;;;4.90;99.90;;;4.70;72.67;94599.66;4981468;28;20482;-58
2023/12/01 01:17:03;;;;;;;18.40;12.57;;;4.90;99.90;;;4.72;72.82;94586.50;4979532;28;20543;-58
2023/12/01 01:19:32;;;;;;;15.00;11.13;;;4.90;99.90;;;4.70;72.73;94602.25;4981257;28;20471;-58
2023/12/01 01:21:59;;;;;;;18.03;11.57;;;4.90;99.90;;;4.67;72.69;94582.47;4978481;28;20498;-58
2023/12/01 01:24:26;;;;;;;26.00;12.83;;;4.90;99.90;;;4.66;72.59;94567.78;4982056;28;20475;-58
2023/12/01 01:26:54;;;;;;;27.00;14.23;;;4.90;99.90;;;4.67;73.14;94564.22;4978385;28;20554;-60
2023/12/01 01:29:21;;;;;;;18.43;11.53;;;4.90;99.90;;;4.70;73.41;94551.94;4978301;28;20475;-57
2023/12/01 01:31:48;;;;;;;22.70;12.80;;;4.90;99.90;;;4.71;72.87;94567.47;4974607;28;20512;-59
2023/12/01 01:34:15;;;;;;;20.73;11.67;;;4.90;99.90;;;4.73;73.42;94567.34;4978214;28;20852;-59
2023/12/01 01:36:44;;;;;;;22.00;12.53;;;4.90;99.90;;;4.77;73.12;94576.59;4982023;28;20505;-59
2023/12/01 01:39:11;;;;;;;21.57;13.23;;;5.00;99.90;;;4.78;73.00;94539.16;4978488;28;20467;-58
2023/12/01 01:41:39;;;;;;;22.57;13.10;;;5.00;99.90;;;4.80;72.77;94558.13;4981570;28;20556;-59
2023/12/01 01:44:06;;;;;;;26.87;14.03;;;5.00;99.90;;;4.80;73.20;94558.13;4978722;28;20511;-58
2023/12/01 01:46:33;;;;;;;20.00;14.23;;;5.00;99.90;;;4.83;73.05;94578.75;4981301;28;20982;-58
2023/12/01 01:49:00;;;;;;;22.90;14.07;;;5.00;99.90;;;4.85;73.07;94562.06;4981053;28;20526;-57
2023/12/01 01:51:29;;;;;;;24.50;13.90;;;5.00;99.90;;;4.88;72.83;94576.66;4984856;28;20525;-58
2023/12/01 01:53:57;;;;;;;29.33;13.47;;;5.00;99.90;;;4.90;73.11;94589.56;4983337;28;20475;-59
2023/12/01 01:56:25;;;;;;;21.87;13.83;;;5.10;99.90;;;4.89;73.06;94548.81;4984152;28;20458;-57
2023/12/01 01:58:52;;;;;;;22.00;14.10;;;5.10;99.90;;;4.91;72.65;94539.09;4983362;28;20523;-58
2023/12/01 02:01:19;;;;;;;26.77;14.33;;;5.10;99.90;;;4.90;72.53;94538.28;4983701;28;20478;-60
2023/12/01 02:03:46;;;;;;;23.53;14.57;;;5.10;99.90;;;4.88;72.70;94566.22;4983730;28;20486;-59
2023/12/01 02:06:14;;;;;;;25.93;15.90;;;5.10;99.90;;;4.87;72.68;94546.31;4983281;28;20513;-58
2023/12/01 02:08:44;;;;;;;27.43;14.80;;;5.10;99.90;;;4.86;72.86;94521.19;4983891;28;20474;-59
2023/12/01 02:11:13;;;;;;;24.47;15.20;;;5.10;99.90;;;4.86;73.63;94555.06;4982779;28;20950;-57
2023/12/01 02:13:40;;;;;;;25.13;15.27;;;5.10;99.90;;;4.87;73.26;94514.22;4984803;28;20815;-59
2023/12/01 02:16:10;;;;;;;24.13;15.30;;;5.10;99.90;;;4.86;73.21;94544.63;4982230;28;20455;-58
2023/12/01 02:18:37;;;;;;;26.87;15.80;;;5.00;99.90;;;4.83;73.61;94526.63;4984834;28;20450;-59
2023/12/01 02:21:05;;;;;;;29.23;16.87;;;5.00;99.90;;;4.81;73.19;94516.31;4981484;28;21022;-59
2023/12/01 02:23:33;;;;;;;27.23;15.90;;;5.00;99.90;;;4.83;73.31;94539.66;4985365;28;20482;-58
2023/12/01 02:26:01;;;;;;;24.40;15.37;;;5.10;99.90;;;4.80;73.37;94553.75;4981516;28;20467;-59
2023/12/01 02:28:29;;;;;;;33.13;17.40;;;5.00;99.90;;;4.79;73.26;94535.63;4984714;28;20967;-57
2023/12/01 02:30:57;;;;;;;27.53;16.50;;;5.00;99.90;;;4.80;73.17;94558.13;4981806;28;20455;-58
2023/12/01 02:33:24;;;;;;;23.33;15.33;;;5.00;99.90;;;4.80;73.23;94552.91;4984590;28;20454;-59
2023/12/01 02:35:53;;;;;;;26.50;16.20;;;5.00;99.90;;;4.79;73.70;94536.44;4982096;28;20483;-59
2023/12/01 02:38:21;;;;;;;27.03;14.63;;;5.00;99.90;;;4.79;73.43;94543.44;4983515;28;20454;-58
2023/12/01 02:40:50;;;;;;;25.47;15.60;;;5.00;99.90;;;4.75;73.31;94542.81;4982286;28;20499;-57
2023/12/01 02:43:17;;;;;;;24.90;14.43;;;5.00;99.90;;;4.76;73.66;94525.44;4983174;28;20529;-58
2023/12/01 02:45:44;;;;;;;24.00;14.27;;;5.00;99.90;;;4.75;73.93;94540.22;4982781;28;20471;-58
2023/12/01 02:48:12;;;;;;;24.00;13.90;;;4.90;99.90;;;4.77;73.73;94532.28;4982979;28;20470;-59
2023/12/01 02:50:39;;;;;;;24.50;14.83;;;5.00;99.90;;;4.77;73.63;94535.75;4982615;28;20979;-57
2023/12/01 02:53:07;;;;;;;20.63;14.17;;;5.00;99.90;;;4.80;73.94;94532.06;4982533;28;20446;-58
2023/12/01 02:55:34;;;;;;;24.93;14.13;;;5.00;99.90;;;4.83;73.79;94544.88;4983202;28;20478;-59
2023/12/01 02:58:02;;;;;;;23.80;14.83;;;5.00;99.90;;;4.87;73.66;94538.50;4982321;28;20846;-59
2023/12/01 03:00:30;;;;;;;27.20;17.80;;;5.10;99.90;;;4.88;73.67;94542.78;4982788;28;20916;-58
2023/12/01 03:02:57;;;;;;;77.87;47.47;;;5.10;99.90;;;4.91;73.62;94518.25;4981549;28;20457;-57
2023/12/01 03:05:24;;;;;;;45.10;25.77;;;5.10;99.90;;;4.95;73.87;94530.94;4983023;28;20478;-58
2023/12/01 03:07:52;;;;;;;35.27;21.13;;;5.10;99.90;;;4.98;73.82;94527.28;4981511;28;21205;-57
2023/12/01 03:10:19;;;;;;;28.27;16.93;;;5.20;99.90;;;5.00;73.67;94502.78;4983145;28;20474;-57
2023/12/01 03:12:46;;;;;;;24.67;13.13;;;5.20;99.90;;;5.04;73.57;94524.22;4981228;28;20451;-59
2023/12/01 03:15:17;;;;;;;23.30;15.63;;;5.20;99.90;;;5.07;73.28;94533.59;4983903;28;20475;-58
2023/12/01 03:17:45;;;;;;;21.37;12.20;;;5.20;99.90;;;5.09;73.37;94540.31;4984582;28;20473;-58
2023/12/01 03:20:14;;;;;;;18.80;12.60;;;5.20;99.90;;;5.12;73.38;94553.13;4980430;28;20471;-58
2023/12/01 03:22:42;;;;;;;22.50;13.73;;;5.30;99.90;;;5.12;73.34;94508.00;4983306;28;20979;-57
2023/12/01 03:25:11;;;;;;;21.53;12.80;;;5.30;99.90;;;5.18;73.32;94562.28;4980961;28;20506;-59
2023/12/01 03:27:42;;;;;;;24.10;12.83;;;5.30;99.90;;;5.18;73.44;94538.81;4983222;28;20753;-58
2023/12/01 03:30:17;;;;;;;19.47;13.37;;;5.30;99.90;;;5.18;73.49;94515.34;4981838;28;20530;-59
2023/12/01 03:32:47;;;;;;;22.73;11.70;;;5.40;99.90;;;5.22;73.44;94516.78;4980951;28;20530;-57
2023/12/01 03:35:15;;;;;;;15.97;11.20;;;5.40;99.90;;;5.23;73.25;94528.88;4983317;28;20901;-58
2023/12/01 03:37:43;;;;;;;67.70;22.00;;;5.40;99.90;;;5.25;72.85;94508.75;4980268;28;20522;-58
2023/12/01 03:40:12;;;;;;;31.73;14.33;;;5.40;99.90;;;5.25;73.52;94521.78;4983637;28;20477;-59
2023/12/01 03:42:41;;;;;;;49.20;24.83;;;5.40;99.90;;;5.27;72.96;94527.69;4976145;28;20595;-59
2023/12/01 03:45:12;;;;;;;33.03;17.23;;;5.50;99.90;;;5.29;73.48;94515.38;4975993;28;20964;-59
2023/12/01 03:47:39;;;;;;;19.17;12.13;;;5.50;99.90;;;5.33;73.05;94523.78;4980698;28;20463;-58
2023/12/01 03:50:11;;;;;;;30.33;14.77;;;5.50;99.90;;;5.37;73.24;94549.50;4982808;28;20478;-60
2023/12/01 03:52:41;;;;;;;23.50;13.00;;;5.50;99.90;;;5.44;73.37;94530.78;4981854;28;20459;-58
2023/12/01 03:55:09;;;;;;;17.40;14.00;;;5.60;99.90;;;5.47;73.59;94527.94;4981204;28;20475;-60
2023/12/01 03:57:36;;;;;;;16.47;10.87;;;5.60;99.90;;;5.48;72.66;94542.66;4982322;28;20468;-59
2023/12/01 04:00:08;;;;;;;19.03;13.10;;;5.60;99.90;;;5.48;72.86;94537.44;4981002;28;20482;-61
2023/12/01 04:02:38;;;;;;;22.80;14.20;;;5.60;99.90;;;5.50;72.84;94541.59;4982869;28;20481;-59
2023/12/01 04:05:07;;;;;;;17.27;11.90;;;5.70;99.90;;;5.54;72.95;94548.22;4975654;28;20471;-60
2023/12/01 04:07:34;;;;;;;17.20;11.20;;;5.70;99.90;;;5.55;72.59;94528.19;4979347;28;20963;-61
2023/12/01 04:10:03;;;;;;;18.67;14.80;;;5.70;99.90;;;5.57;73.11;94544.56;4983293;28;20477;-59
2023/12/01 04:12:31;;;;;;;20.30;14.30;;;5.80;99.90;;;5.59;72.97;94521.78;4979153;28;20495;-58
2023/12/01 04:14:59;;;;;;;24.93;13.50;;;5.70;99.90;;;5.61;72.87;94522.50;4981884;28;20529;-57
2023/12/01 04:17:26;;;;;;;20.10;15.07;;;5.80;99.90;;;5.64;72.78;94524.03;4980028;28;20530;-60
2023/12/01 04:19:53;;;;;;;21.03;13.10;;;5.80;99.90;;;5.65;72.83;94513.47;4982083;28;20843;-57
2023/12/01 04:22:22;;;;;;;17.50;13.17;;;5.80;99.90;;;5.67;72.39;94515.97;4979904;28;20510;-57
2023/12/01 04:24:49;;;;;;;53.10;24.73;;;5.80;99.90;;;5.69;72.25;94551.44;4981205;28;20479;-58
2023/12/01 04:27:16;;;;;;;103.83;35.83;;;5.90;99.90;;;5.66;72.35;94506.50;4980565;28;20464;-57
2023/12/01 04:29:43;;;;;;;77.77;27.43;;;5.80;99.90;;;5.65;72.93;94512.66;4981296;28;20475;-58
2023/12/01 04:32:11;;;;;;;33.40;17.23;;;5.80;99.90;;;5.64;72.59;94500.56;4980763;28;20458;-61
2023/12/01 04:34:38;;;;;;;31.30;16.90;;;5.80;99.90;;;5.62;72.34;94499.84;4980514;28;20478;-57
2023/12/01 04:37:09;;;;;;;39.50;13.77;;;5.80;99.90;;;5.63;72.58;94520.59;4980862;28;20645;-60
2023/12/01 04:39:38;;;;;;;39.73;20.77;;;5.80;99.90;;;5.64;72.36;94490.13;4980332;28;20473;-58
2023/12/01 04:42:07;;;;;;;36.97;17.33;;;5.80;99.90;;;5.63;72.39;94514.56;4982058;28;20980;-60
2023/12/01 04:44:35;;;;;;;33.27;16.53;;;5.80;99.90;;;5.63;72.56;94494.53;4979630;28;20479;-59
2023/12/01 04:47:02;;;;;;;25.47;14.30;;;5.80;99.90;;;5.63;72.48;94491.91;4982096;28;20512;-57
2023/12/01 04:49:30;;;;;;;36.97;21.20;;;5.80;99.90;;;5.64;72.75;94511.84;4978984;28;20522;-60
2023/12/01 04:51:57;;;;;;;22.97;12.80;;;5.80;99.90;;;5.63;72.52;94494.53;4981897;28;20454;-60
2023/12/01 04:54:24;;;;;;;20.93;11.87;;;5.80;99.90;;;5.63;72.85;94514.56;4978304;28;20575;-58
2023/12/01 04:56:53;;;;;;;23.23;12.57;;;5.80;99.90;;;5.62;72.69;94498.06;4978736;28;20463;-57
2023/12/01 04:59:20;;;;;;;20.67;12.47;;;5.80;99.90;;;5.62;72.42;94487.63;4978482;28;20853;-56
2023/12/01 05:01:48;;;;;;;20.53;13.03;;;5.80;99.90;;;5.65;72.64;94494.41;4980817;28;20497;-57
2023/12/01 05:04:15;;;;;;;21.07;13.30;;;5.80;99.90;;;5.65;72.51;94510.06;4978478;28;20471;-58
2023/12/01 05:06:42;;;;;;;23.10;13.27;;;5.80;99.90;;;5.64;72.56;94503.16;4981729;28;20533;-59
2023/12/01 05:09:16;;;;;;;17.70;12.47;;;5.80;99.90;;;5.63;72.22;94523.22;4979001;28;20979;-61
2023/12/01 05:11:44;;;;;;;18.00;11.93;;;5.80;99.90;;;5.63;72.52;94506.75;4980081;28;20470;-58
2023/12/01 05:14:13;;;;;;;21.20;13.03;;;5.80;99.90;;;5.61;72.55;94532.09;4980035;28;20487;-57
2023/12/01 05:16:41;;;;;;;20.37;13.50;;;5.80;99.90;;;5.59;71.96;94524.38;4979779;28;20511;-60
2023/12/01 05:19:10;;;;;;;17.17;12.50;;;5.80;99.90;;;5.57;72.72;94506.25;4980941;28;20487;-58
2023/12/01 05:21:38;;;;;;;17.93;12.20;;;5.70;99.90;;;5.58;72.75;94514.94;4979154;28;20997;-58
2023/12/01 05:24:05;;;;;;;20.63;12.73;;;5.70;99.90;;;5.59;72.75;94529.59;4984142;28;20471;-57
2023/12/01 05:26:34;;;;;;;24.20;13.90;;;5.80;99.90;;;5.59;72.66;94498.31;4982822;28;20478;-58
2023/12/01 05:29:02;;;;;;;22.80;13.73;;;5.70;99.90;;;5.58;72.30;94512.31;4985189;28;20474;-58
2023/12/01 05:31:31;;;;;;;17.07;12.47;;;5.80;99.90;;;5.61;72.49;94517.28;4981844;28;20458;-60
2023/12/01 05:33:59;;;;;;;19.90;13.30;;;5.80;99.90;;;5.62;72.41;94513.72;4980541;28;20493;-59
2023/12/01 05:36:26;;;;;;;19.00;11.50;;;5.80;99.90;;;5.65;72.74;94523.09;4982079;28;20459;-59
2023/12/01 05:38:54;;;;;;;17.30;11.90;;;5.80;99.90;;;5.67;72.96;94526.41;4985536;28;20474;-61
2023/12/01 05:41:21;;;;;;;18.83;12.20;;;5.80;99.90;;;5.69;72.54;94514.09;4982201;28;20497;-59
2023/12/01 05:43:48;;;;;;;16.30;12.10;;;5.80;99.90;;;5.70;72.44;94528.78;4985240;28;20541;-58
2023/12/01 05:46:16;;;;;;;18.43;11.50;;;5.80;99.90;;;5.72;73.02;94516.47;4982089;28;20455;-58
2023/12/01 05:48:45;;;;;;;18.23;12.60;;;5.80;99.90;;;5.76;72.55;94530.91;4984463;28;20479;-60
2023/12/01 05:51:12;;;;;;;21.40;13.67;;;5.90;99.90;;;5.78;72.88;94507.31;4982517;28;20468;-57
2023/12/01 05:53:40;;;;;;;22.40;13.37;;;5.90;99.90;;;5.79;72.82;94506.38;4984108;28;20999;-60
2023/12/01 05:56:09;;;;;;;21.03;12.90;;;5.90;99.90;;;5.82;73.19;94519.19;4982918;28;20464;-59
2023/12/01 05:58:36;;;;;;;20.60;13.00;;;5.90;99.90;;;5.85;73.07;94522.38;4983443;28;20454;-59
2023/12/01 06:01:04;;;;;;;18.70;12.43;;;6.00;99.90;;;5.88;73.12;94513.47;4983239;28;20593;-60
2023/12/01 06:03:32;;;;;;;26.33;11.30;;;6.00;99.90;;;5.92;72.42;94510.50;4982032;28;21137;-58
2023/12/01 06:06:01;;;;;;;17.30;11.33;;;6.00;99.90;;;5.96;72.81;94521.53;4983594;28;20462;-59
2023/12/01 06:08:28;;;;;;;17.70;10.97;;;6.10;99.90;;;6.01;72.31;94509.00;4982570;28;20450;-58
2023/12/01 06:10:55;;;;;;;15.53;11.07;;;6.20;99.90;;;6.06;72.91;94506.84;4983382;28;20957;-58
2023/12/01 06:13:22;;;;;;;19.00;11.70;;;6.20;99.90;;;6.11;72.74;94511.69;4982239;28;20470;-59
2023/12/01 06:15:50;;;;;;;18.00;12.43;;;6.20;99.90;;;6.14;73.01;94494.97;4983759;28;20461;-58
2023/12/01 06:18:17;;;;;;;29.50;12.50;;;6.30;99.90;;;6.19;72.89;94508.47;4981906;28;20482;-58
2023/12/01 06:20:44;;;;;;;48.60;26.60;;;6.30;99.90;;;6.23;72.52;94515.94;4983848;28;20470;-58
2023/12/01 06:23:13;;;;;;;48.83;23.90;;;6.40;99.90;;;6.27;73.13;94506.94;4981217;28;20536;-58
2023/12/01 06:25:42;;;;;;;25.00;16.03;;;6.40;99.90;;;6.33;72.37;94512.59;4984186;28;20474;-60
2023/12/01 06:28:10;;;;;;;30.40;15.33;;;6.40;99.90;;;6.37;72.09;94520.06;4977694;28;20834;-58
2023/12/01 06:30:37;;;;;;;31.27;14.50;;;6.50;99.90;;;6.39;72.13;94522.56;4980912;28;20475;-60
2023/12/01 06:33:06;;;;;;;28.07;15.50;;;6.50;99.90;;;6.41;72.44;94521.50;4983156;28;20485;-58
2023/12/01 06:35:33;;;;;;;26.70;14.10;;;6.50;99.90;;;6.47;72.63;94507.09;4980546;28;20506;-59
2023/12/01 06:38:00;;;;;;;28.13;14.77;;;6.60;99.90;;;6.53;72.25;94506.59;4984450;28;20541;-60
2023/12/01 06:40:33;;;;;;;27.10;14.57;;;6.60;99.90;;;6.58;72.34;94527.13;4981547;28;20476;-59
2023/12/01 06:43:00;;;;;;;21.43;14.10;;;6.70;99.90;;;6.60;71.99;94514.75;4983137;28;20485;-56
2023/12/01 06:45:28;;;;;;;33.60;14.97;;;6.70;99.90;;;6.66;71.42;94510.84;4982357;28;20471;-58
2023/12/01 06:47:58;;;;;;;26.83;15.37;;;6.80;99.90;;;6.68;71.55;94504.53;4982832;28;20491;-59
2023/12/01 06:50:26;;;;;;;25.07;14.50;;;6.80;99.90;;;6.75;71.45;94517.91;4983277;28;20490;-58
2023/12/01 06:52:54;;;;;;;26.70;14.90;;;6.80;99.90;;;6.76;71.41;94514.38;4982089;28;20451;-58
2023/12/01 06:55:21;;;;;;;27.60;16.63;;;6.90;99.90;;;6.77;71.14;94516.00;4983142;28;20480;-60
2023/12/01 06:57:50;;;;;;;29.70;15.90;;;6.90;99.90;;;6.79;71.14;94542.88;4981589;28;20940;-61
2023/12/01 07:00:29;;;;;;;21.20;13.37;;;6.90;99.90;;;6.82;71.85;94514.69;4983707;28;20482;-60
2023/12/01 07:02:57;;;;;;;21.20;11.43;;;6.90;99.90;;;6.86;71.92;94558.88;4980083;28;20491;-59
2023/12/01 07:05:25;;;;;;;17.37;11.53;;;7.00;99.90;;;6.93;71.98;94546.97;4982939;28;21025;-58
2023/12/01 07:07:53;;;;;;;19.27;11.53;;;7.00;99.90;;;6.98;71.19;94548.22;4981429;28;20455;-60
2023/12/01 07:10:21;;;;;;;17.33;11.20;;;7.10;99.90;;;7.08;73.00;94535.25;4982583;28;20496;-59
2023/12/01 07:12:50;;;;;;;18.10;11.80;;;7.10;99.90;;;7.23;73.31;94521.84;4982129;28;20547;-58
2023/12/01 07:15:20;;;;;;;29.30;13.07;;;7.30;99.90;;;7.36;71.91;94514.63;4981895;28;20493;-61
2023/12/01 07:17:49;;;;;;;26.70;12.37;;;7.40;99.90;;;7.45;71.31;94526.94;4982821;28;20435;-59
2023/12/01 07:20:18;;;;;;;23.77;12.53;;;7.50;99.90;;;7.53;71.04;94518.44;4980717;28;20988;-59
2023/12/01 07:22:45;;;;;;;16.40;10.70;;;7.60;99.90;;;7.62;70.79;94527.28;4982837;28;21006;-57
2023/12/01 07:25:21;;;;;;;19.23;11.07;;;7.70;99.90;;;7.69;70.69;94523.19;4980673;28;20472;-58
2023/12/01 07:27:50;;;;;;;25.10;11.90;;;7.80;99.90;;;7.77;71.43;94530.41;4980353;28;20477;-57
2023/12/01 07:30:17;;;;;;;21.80;11.70;;;7.90;99.90;;;7.89;72.76;94530.16;4979615;28;20471;-58
2023/12/01 07:32:45;;;;;;;26.83;12.97;;;7.90;99.90;;;7.98;70.99;94509.38;4981549;28;20983;-60
2023/12/01 07:35:13;;;;;;;20.47;11.53;;;8.00;99.90;;;8.06;70.56;94499.09;4980571;28;20557;-57
2023/12/01 07:37:42;;;;;;;25.53;12.40;;;8.10;99.90;;;8.11;70.53;94504.75;4982038;28;20932;-60
2023/12/01 07:40:11;;;;;;;18.63;12.23;;;8.20;99.90;;;8.17;70.44;94513.88;4981409;28;20554;-60
2023/12/01 07:42:38;;;;;;;18.70;11.33;;;8.20;99.90;;;8.22;70.02;94509.03;4981663;28;20490;-57
2023/12/01 07:45:08;;;;;;;14.60;10.50;;;8.30;99.90;;;8.29;70.17;94525.03;4981651;28;20471;-60
2023/12/01 07:47:35;;;;;;;22.10;11.07;;;8.30;99.90;;;8.34;69.96;94528.94;4980767;28;20541;-60
2023/12/01 07:50:05;;;;;;;18.40;12.13;;;8.40;99.90;;;8.40;69.94;94525.78;4982254;28;20486;-58
2023/12/01 07:52:32;;;;;;;20.87;11.10;;;8.40;99.90;;;8.45;69.49;94524.59;4980297;28;20932;-57
2023/12/01 07:54:59;;;;;;;21.73;11.67;;;8.50;99.90;;;8.44;69.05;94515.88;4982825;28;20561;-59
2023/12/01 07:57:27;;;;;;;20.77;13.47;;;8.50;99.90;;;8.46;69.38;94500.84;4979944;28;20459;-60
2023/12/01 07:59:54;;;;;;;25.17;15.80;;;8.50;99.90;;;8.49;69.53;94510.22;4983036;28;20482;-57
2023/12/01 08:02:23;;;;;;;29.17;17.13;;;8.50;99.90;;;8.51;69.08;94535.34;4978442;28;20491;-60
2023/12/01 08:04:50;;;;;;;36.00;19.37;;;8.60;99.90;;;8.53;68.99;94538.66;4978827;28;20503;-58
2023/12/01 08:07:17;;;;;;;30.97;16.83;;;8.60;99.90;;;8.53;68.82;94541.25;4979434;28;20817;-57
2023/12/01 08:09:44;;;;;;;37.93;20.37;;;8.60;99.90;;;8.51;68.77;94558.13;4979237;28;20475;-59
2023/12/01 08:12:12;;;;;;;38.50;21.13;;;8.60;99.90;;;8.47;68.50;94510.34;4982490;28;20455;-57
2023/12/01 08:14:39;;;;;;;43.47;21.33;;;8.60;99.90;;;8.43;68.52;94519.44;4979281;28;20991;-60
2023/12/01 08:17:07;;;;;;;34.93;21.83;;;8.50;99.90;;;8.37;68.71;94519.97;4982630;28;20481;-58
2023/12/01 08:19:35;;;;;;;32.50;19.90;;;8.50;99.90;;;8.36;68.64;94568.09;4979624;28;20511;-60
2023/12/01 08:22:04;;;;;;;39.43;21.33;;;8.50;99.90;;;8.35;69.03;94588.25;4981761;28;20520;-58
2023/12/01 08:24:32;;;;;;;33.60;20.90;;;8.40;99.90;;;8.34;68.60;94570.84;4980232;28;20471;-59
2023/12/01 08:27:00;;;;;;;33.47;21.10;;;8.40;99.90;;;8.31;68.71;94546.72;4980964;28;20454;-57
2023/12/01 08:29:27;;;;;;;31.97;20.33;;;8.40;99.90;;;8.30;68.58;94564.22;4980078;28;21058;-60
2023/12/01 08:31:54;;;;;;;32.20;19.93;;;8.40;99.90;;;8.31;68.70;94550.16;4980131;28;21213;-58
2023/12/01 08:34:21;;;;;;;42.33;22.27;;;8.40;99.90;;;8.35;68.81;94545.47;4979451;28;20483;-58
2023/12/01 08:36:50;;;;;;;31.63;20.80;;;8.40;99.90;;;8.37;69.08;94533.09;4980661;28;20525;-58
2023/12/01 08:39:17;;;;;;;42.40;20.03;;;8.40;99.90;;;8.42;68.96;94573.63;4980572;28;20530;-58
2023/12/01 08:41:45;;;;;;;34.43;22.20;;;8.50;99.90;;;8.45;69.14;94538.50;4979648;28;20482;-57
2023/12/01 08:44:12;;;;;;;40.03;22.40;;;8.50;99.90;;;8.52;68.56;94539.63;4980691;28;20531;-57
2023/12/01 08:46:39;;;;;;;40.73;23.70;;;8.60;99.90;;;8.54;68.64;94524.59;4979818;28;20546;-59
2023/12/01 08:49:06;;;;;;;39.97;23.27;;;8.60;99.90;;;8.55;68.40;94539.34;4980846;28;20479;-58
2023/12/01 08:51:34;;;;;;;40.33;21.80;;;8.60;99.90;;;8.55;68.68;94528.88;4979726;28;20876;-60
2023/12/01 08:54:03;;;;;;;33.57;18.70;;;8.70;99.90;;;8.56;68.91;94517.41;4981332;28;20561;-57
2023/12/01 08:56:32;;;;;;;31.50;19.10;;;8.70;99.90;;;8.59;68.84;94501.41;4979099;28;20943;-56
2023/12/01 08:58:59;;;;;;;29.77;16.77;;;8.70;99.90;;;8.69;68.73;94500.59;4981594;28;20569;-57
2023/12/01 09:01:26;;;;;;;49.40;19.43;;;8.70;99.90;;;8.80;68.74;94513.56;4978706;28;20533;-60
2023/12/01 09:03:54;;;;;;;30.67;18.53;;;8.90;99.90;;;8.95;68.61;94517.44;4981040;28;20498;-60
2023/12/01 09:06:21;;;;;;;54.73;34.13;;;9.00;99.90;;;9.12;67.87;94507.19;4978333;28;20455;-60
2023/12/01 09:08:49;;;;;;;66.87;39.70;;;9.10;99.90;;;9.21;67.33;94495.88;4978571;28;20471;-60
2023/12/01 09:11:17;;;;;;;74.83;38.17;;;9.20;99.90;;;9.23;67.55;94491.28;4981678;28;20454;-58
2023/12/01 09:13:45;;;;;;;68.10;34.53;;;9.30;99.90;;;9.26;66.96;94493.63;4978317;28;21016;-56
2023/12/01 09:16:12;;;;;;;57.10;33.53;;;9.30;99.90;;;9.30;66.76;94476.66;4981561;28;20477;-59
2023/12/01 09:18:38;;;;;;;55.57;29.47;;;9.30;99.90;;;9.31;67.04;94496.69;4978590;28;21216;-56
2023/12/01 09:21:07;;;;;;;54.10;29.10;;;9.40;99.90;;;9.35;67.54;94507.72;4981851;28;20482;-56
2023/12/01 09:23:34;;;;;;;57.60;28.13;;;9.40;99.90;;;9.43;67.36;94520.13;4980644;28;20512;-57
2023/12/01 09:26:01;;;;;;;42.70;24.73;;;9.40;99.90;;;9.51;67.53;94507.13;4978994;28;20459;-59
2023/12/01 09:28:30;;;;;;;48.07;28.07;;;9.50;99.90;;;9.60;67.51;94501.00;4980630;28;20899;-58
2023/12/01 09:30:58;;;;;;;57.03;31.33;;;9.60;99.90;;;9.68;67.09;94521.31;4979140;28;20834;-58
2023/12/01 09:33:25;;;;;;;66.53;32.67;;;9.70;99.90;;;9.76;67.03;94523.22;4978642;28;20913;-59
2023/12/01 09:35:53;;;;;;;57.47;32.53;;;9.80;99.90;;;9.81;66.10;94527.06;4979733;28;20487;-57
2023/12/01 09:38:21;;;;;;;52.90;32.40;;;9.80;99.90;;;9.84;66.26;94528.59;4979479;28;20462;-61
2023/12/01 09:40:48;;;;;;;48.40;32.50;;;9.90;99.90;;;9.92;66.12;94525.25;4980373;28;20463;-60
2023/12/01 09:43:16;;;;;;;50.10;31.50;;;9.90;99.90;;;10.19;66.42;94501.63;4979362;28;20593;-60
2023/12/01 09:45:45;;;;;;;46.60;30.07;;;10.20;99.90;;;10.96;65.48;94503.06;4979414;28;20554;-60
2023/12/01 09:48:13;;;;;;;53.30;31.90;;;10.80;99.90;;;11.84;64.16;94495.13;4978563;28;20463;-59
2023/12/01 09:50:40;;;;;;;49.77;29.20;;;11.50;99.90;;;12.67;62.43;94481.28;4980738;28;20470;-58
2023/12/01 09:53:07;;;;;;;48.10;27.77;;;12.20;99.90;;;13.57;61.21;94471.72;4978602;28;21031;-58
2023/12/01 09:55:35;;;;;;;46.83;27.60;;;13.10;99.90;;;14.71;59.53;94461.69;4980775;28;21014;-58
2023/12/01 09:58:03;;;;;;;48.47;29.97;;;14.10;99.90;;;15.94;57.27;94473.09;4978442;28;20465;-59
2023/12/01 10:00:30;;;;;;;46.73;26.57;;;15.20;99.60;;;16.83;54.86;94483.59;4981101;28;20482;-58
2023/12/01 10:02:59;;;;;;;54.37;28.87;;;16.20;97.50;;;17.75;53.09;94494.44;4976366;28;20490;-58
2023/12/01 10:05:26;;;;;;;55.10;28.40;;;17.10;95.60;;;18.74;51.69;94479.25;4977274;28;20995;-59
2023/12/01 10:07:53;;;;;;;49.17;29.70;;;18.00;93.70;;;19.77;49.54;94488.88;4977505;28;20448;-57
2023/12/01 10:10:21;;;;;;;42.67;25.53;;;19.00;92.20;;;20.83;47.25;94465.63;4983338;28;20474;-58
2023/12/01 10:12:58;;;;;;;46.63;28.10;;;20.00;88.00;;;21.72;45.73;94458.47;4981602;28;20766;-60
2023/12/01 10:15:25;;;;;;;57.37;29.33;;;20.90;85.90;;;22.45;43.51;94467.66;4983480;28;20540;-58
2023/12/01 10:17:53;;;;;;;44.50;26.23;;;21.60;79.40;;;23.10;44.05;94474.31;4982694;28;20541;-60
2023/12/01 10:20:22;;;;;;;40.37;24.80;;;22.30;79.00;;;23.88;42.03;94452.91;4982593;28;20563;-59